sensor_id;sensor_type;location;lat;lon;timestamp;P1;durP1;ratioP1;P2;durP2;ratioP2
14933;SDS011;7560;51.364;12.384;2023-02-01T00:02:30;8.85;;;4.70;;
14933;SDS011;7560;51.364;12.384;2023-02-01T00:07:32;8.85;;;3.65;;
14933;SDS011;7560;51.364;12.384;2023-02-01T00:12:34;9.85;;;4.35;;
14933;SDS011;7560;51.364;12.384;2023-02-01T00:17:36;8.93;;;4.55;;
14933;SDS011;7560;51.364;12.384;2023-02-01T00:22:38;8.70;;;3.50;;
14933;SDS011;7560;51.364;12.384;2023-02-01T00:27:40;6.03;;;3.30;;
14933;SDS011;7560;51.364;12.384;2023-02-01T00:32:41;11.82;;;3.38;;
14933;SDS011;7560;51.364;12.384;2023-02-01T00:37:43;6.78;;;3.08;;
14933;SDS011;7560;51.364;12.384;2023-02-01T00:42:45;8.63;;;3.22;;
14933;SDS011;7560;51.364;12.384;2023-02-01T00:47:47;7.30;;;3.22;;
14933;SDS011;7560;51.364;12.384;2023-02-01T00:52:48;10.35;;;3.28;;
14933;SDS011;7560;51.364;12.384;2023-02-01T00:57:50;10.00;;;3.17;;
14933;SDS011;7560;51.364;12.384;2023-02-01T01:02:52;8.85;;;3.53;;
14933;SDS011;7560;51.364;12.384;2023-02-01T01:07:54;6.63;;;2.40;;
14933;SDS011;7560;51.364;12.384;2023-02-01T01:12:56;8.05;;;2.70;;
14933;SDS011;7560;51.364;12.384;2023-02-01T01:17:58;7.45;;;2.45;;
14933;SDS011;7560;51.364;12.384;2023-02-01T01:23:00;9.02;;;3.15;;
14933;SDS011;7560;51.364;12.384;2023-02-01T01:28:02;8.18;;;3.70;;
14933;SDS011;7560;51.364;12.384;2023-02-01T01:33:04;10.23;;;3.65;;
14933;SDS011;7560;51.364;12.384;2023-02-01T01:38:06;7.68;;;3.42;;
14933;SDS011;7560;51.364;12.384;2023-02-01T01:43:14;8.30;;;3.47;;
14933;SDS011;7560;51.364;12.384;2023-02-01T01:48:27;6.30;;;3.40;;
14933;SDS011;7560;51.364;12.384;2023-02-01T01:53:32;8.73;;;3.40;;
14933;SDS011;7560;51.364;12.384;2023-02-01T01:58:38;7.35;;;3.28;;
14933;SDS011;7560;51.364;12.384;2023-02-01T02:03:44;6.85;;;3.45;;
14933;SDS011;7560;51.364;12.384;2023-02-01T02:08:48;7.05;;;3.05;;
14933;SDS011;7560;51.364;12.384;2023-02-01T02:13:52;9.88;;;3.47;;
14933;SDS011;7560;51.364;12.384;2023-02-01T02:24:37;7.50;;;3.00;;
14933;SDS011;7560;51.364;12.384;2023-02-01T02:34:53;10.77;;;3.20;;
14933;SDS011;7560;51.364;12.384;2023-02-01T02:51:30;9.45;;;2.75;;
14933;SDS011;7560;51.364;12.384;2023-02-01T02:56:55;8.85;;;2.92;;
14933;SDS011;7560;51.364;12.384;2023-02-01T03:02:17;11.18;;;3.05;;
14933;SDS011;7560;51.364;12.384;2023-02-01T03:13:13;8.18;;;3.45;;
14933;SDS011;7560;51.364;12.384;2023-02-01T03:18:32;8.13;;;2.85;;
14933;SDS011;7560;51.364;12.384;2023-02-01T03:23:41;8.10;;;2.95;;
14933;SDS011;7560;51.364;12.384;2023-02-01T03:28:49;9.57;;;3.22;;
14933;SDS011;7560;51.364;12.384;2023-02-01T03:33:55;10.90;;;2.92;;
14933;SDS011;7560;51.364;12.384;2023-02-01T03:39:02;8.90;;;2.80;;
14933;SDS011;7560;51.364;12.384;2023-02-01T03:44:25;8.48;;;2.90;;
14933;SDS011;7560;51.364;12.384;2023-02-01T03:49:35;10.27;;;3.60;;
14933;SDS011;7560;51.364;12.384;2023-02-01T03:54:39;10.65;;;2.85;;
14933;SDS011;7560;51.364;12.384;2023-02-01T03:59:42;9.68;;;2.80;;
14933;SDS011;7560;51.364;12.384;2023-02-01T04:04:46;10.68;;;3.25;;
14933;SDS011;7560;51.364;12.384;2023-02-01T04:09:47;7.78;;;2.60;;
14933;SDS011;7560;51.364;12.384;2023-02-01T04:14:49;9.45;;;2.60;;
14933;SDS011;7560;51.364;12.384;2023-02-01T04:19:51;12.75;;;2.92;;
14933;SDS011;7560;51.364;12.384;2023-02-01T04:24:55;14.60;;;3.00;;
14933;SDS011;7560;51.364;12.384;2023-02-01T04:29:57;10.27;;;2.65;;
14933;SDS011;7560;51.364;12.384;2023-02-01T04:34:59;8.07;;;2.80;;
14933;SDS011;7560;51.364;12.384;2023-02-01T04:40:00;13.23;;;3.35;;
14933;SDS011;7560;51.364;12.384;2023-02-01T04:45:05;10.77;;;3.15;;
14933;SDS011;7560;51.364;12.384;2023-02-01T04:50:07;11.48;;;2.65;;
14933;SDS011;7560;51.364;12.384;2023-02-01T04:55:11;9.18;;;2.70;;
14933;SDS011;7560;51.364;12.384;2023-02-01T05:00:14;8.35;;;2.88;;
14933;SDS011;7560;51.364;12.384;2023-02-01T05:05:17;11.00;;;2.97;;
14933;SDS011;7560;51.364;12.384;2023-02-01T05:10:19;8.23;;;3.20;;
14933;SDS011;7560;51.364;12.384;2023-02-01T05:15:21;7.40;;;2.67;;
14933;SDS011;7560;51.364;12.384;2023-02-01T05:20:23;11.73;;;3.40;;
14933;SDS011;7560;51.364;12.384;2023-02-01T05:25:25;6.75;;;3.13;;
14933;SDS011;7560;51.364;12.384;2023-02-01T05:30:27;11.43;;;3.35;;
14933;SDS011;7560;51.364;12.384;2023-02-01T05:35:29;10.90;;;3.53;;
14933;SDS011;7560;51.364;12.384;2023-02-01T05:40:31;5.43;;;3.08;;
14933;SDS011;7560;51.364;12.384;2023-02-01T05:45:33;10.90;;;3.10;;
14933;SDS011;7560;51.364;12.384;2023-02-01T05:50:35;7.45;;;3.50;;
14933;SDS011;7560;51.364;12.384;2023-02-01T05:55:38;9.70;;;3.17;;
14933;SDS011;7560;51.364;12.384;2023-02-01T06:00:40;6.55;;;3.28;;
14933;SDS011;7560;51.364;12.384;2023-02-01T06:05:45;8.45;;;3.20;;
14933;SDS011;7560;51.364;12.384;2023-02-01T06:10:48;10.40;;;2.88;;
14933;SDS011;7560;51.364;12.384;2023-02-01T06:15:50;7.70;;;3.20;;
14933;SDS011;7560;51.364;12.384;2023-02-01T06:20:56;13.15;;;3.65;;
14933;SDS011;7560;51.364;12.384;2023-02-01T06:25:59;8.27;;;2.88;;
14933;SDS011;7560;51.364;12.384;2023-02-01T06:31:04;10.00;;;3.53;;
14933;SDS011;7560;51.364;12.384;2023-02-01T06:36:09;10.13;;;3.47;;
14933;SDS011;7560;51.364;12.384;2023-02-01T06:46:21;9.77;;;3.58;;
14933;SDS011;7560;51.364;12.384;2023-02-01T06:51:24;8.43;;;2.88;;
14933;SDS011;7560;51.364;12.384;2023-02-01T06:56:27;8.05;;;3.60;;
14933;SDS011;7560;51.364;12.384;2023-02-01T07:01:29;10.20;;;3.90;;
14933;SDS011;7560;51.364;12.384;2023-02-01T07:06:31;9.38;;;3.22;;
14933;SDS011;7560;51.364;12.384;2023-02-01T07:11:33;9.10;;;3.47;;
14933;SDS011;7560;51.364;12.384;2023-02-01T07:16:36;7.40;;;3.65;;
14933;SDS011;7560;51.364;12.384;2023-02-01T07:21:38;8.65;;;3.15;;
14933;SDS011;7560;51.364;12.384;2023-02-01T07:26:40;11.13;;;3.10;;
14933;SDS011;7560;51.364;12.384;2023-02-01T07:31:42;11.15;;;3.30;;
14933;SDS011;7560;51.364;12.384;2023-02-01T07:36:44;11.05;;;3.28;;
14933;SDS011;7560;51.364;12.384;2023-02-01T07:41:46;8.85;;;3.50;;
14933;SDS011;7560;51.364;12.384;2023-02-01T07:46:49;11.20;;;3.47;;
14933;SDS011;7560;51.364;12.384;2023-02-01T07:51:51;12.48;;;4.28;;
14933;SDS011;7560;51.364;12.384;2023-02-01T07:56:53;9.60;;;3.80;;
14933;SDS011;7560;51.364;12.384;2023-02-01T08:01:56;7.63;;;3.15;;
14933;SDS011;7560;51.364;12.384;2023-02-01T08:06:58;7.03;;;4.03;;
14933;SDS011;7560;51.364;12.384;2023-02-01T08:12:00;8.60;;;3.63;;
14933;SDS011;7560;51.364;12.384;2023-02-01T08:17:02;11.95;;;4.30;;
14933;SDS011;7560;51.364;12.384;2023-02-01T08:22:04;8.70;;;3.38;;
14933;SDS011;7560;51.364;12.384;2023-02-01T08:27:07;8.45;;;3.15;;
14933;SDS011;7560;51.364;12.384;2023-02-01T08:32:09;9.88;;;3.47;;
14933;SDS011;7560;51.364;12.384;2023-02-01T08:37:11;9.05;;;3.08;;
14933;SDS011;7560;51.364;12.384;2023-02-01T08:42:13;7.15;;;3.10;;
14933;SDS011;7560;51.364;12.384;2023-02-01T08:47:34;12.85;;;4.22;;
14933;SDS011;7560;51.364;12.384;2023-02-01T08:52:36;7.32;;;3.30;;
14933;SDS011;7560;51.364;12.384;2023-02-01T08:57:38;7.65;;;3.95;;
14933;SDS011;7560;51.364;12.384;2023-02-01T09:02:40;6.82;;;3.15;;
14933;SDS011;7560;51.364;12.384;2023-02-01T09:07:42;6.65;;;3.60;;
14933;SDS011;7560;51.364;12.384;2023-02-01T09:12:44;8.85;;;4.13;;
14933;SDS011;7560;51.364;12.384;2023-02-01T09:17:46;12.80;;;4.40;;
14933;SDS011;7560;51.364;12.384;2023-02-01T09:22:48;10.80;;;4.40;;
14933;SDS011;7560;51.364;12.384;2023-02-01T09:27:51;14.40;;;5.00;;
14933;SDS011;7560;51.364;12.384;2023-02-01T09:32:53;10.75;;;4.35;;
14933;SDS011;7560;51.364;12.384;2023-02-01T09:37:55;12.80;;;4.30;;
14933;SDS011;7560;51.364;12.384;2023-02-01T09:48:24;9.48;;;4.68;;
14933;SDS011;7560;51.364;12.384;2023-02-01T09:53:33;13.52;;;3.90;;
14933;SDS011;7560;51.364;12.384;2023-02-01T09:58:40;8.95;;;3.83;;
14933;SDS011;7560;51.364;12.384;2023-02-01T10:03:45;10.20;;;3.83;;
14933;SDS011;7560;51.364;12.384;2023-02-01T10:14:36;7.63;;;3.90;;
14933;SDS011;7560;51.364;12.384;2023-02-01T10:30:24;7.88;;;3.13;;
14933;SDS011;7560;51.364;12.384;2023-02-01T10:35:33;9.68;;;3.47;;
14933;SDS011;7560;51.364;12.384;2023-02-01T10:40:39;11.98;;;4.43;;
14933;SDS011;7560;51.364;12.384;2023-02-01T10:45:41;7.70;;;3.17;;
14933;SDS011;7560;51.364;12.384;2023-02-01T10:50:46;7.80;;;2.78;;
14933;SDS011;7560;51.364;12.384;2023-02-01T10:55:55;6.72;;;2.78;;
14933;SDS011;7560;51.364;12.384;2023-02-01T11:00:58;6.65;;;2.38;;
14933;SDS011;7560;51.364;12.384;2023-02-01T11:16:48;7.32;;;2.20;;
14933;SDS011;7560;51.364;12.384;2023-02-01T11:21:52;5.57;;;1.83;;
14933;SDS011;7560;51.364;12.384;2023-02-01T11:26:56;3.72;;;2.15;;
14933;SDS011;7560;51.364;12.384;2023-02-01T11:31:59;7.03;;;2.08;;
14933;SDS011;7560;51.364;12.384;2023-02-01T11:37:01;7.13;;;2.38;;
14933;SDS011;7560;51.364;12.384;2023-02-01T11:42:05;6.85;;;2.08;;
14933;SDS011;7560;51.364;12.384;2023-02-01T12:09:26;7.10;;;2.35;;
14933;SDS011;7560;51.364;12.384;2023-02-01T12:14:43;6.05;;;2.33;;
14933;SDS011;7560;51.364;12.384;2023-02-01T12:25:36;8.57;;;2.65;;
14933;SDS011;7560;51.364;12.384;2023-02-01T12:31:18;9.95;;;2.60;;
14933;SDS011;7560;51.364;12.384;2023-02-01T12:36:39;7.05;;;2.33;;
14933;SDS011;7560;51.364;12.384;2023-02-01T12:42:03;13.90;;;2.83;;
14933;SDS011;7560;51.364;12.384;2023-02-01T12:52:34;7.40;;;2.33;;
14933;SDS011;7560;51.364;12.384;2023-02-01T12:57:42;10.35;;;2.30;;
14933;SDS011;7560;51.364;12.384;2023-02-01T13:08:06;6.07;;;1.83;;
14933;SDS011;7560;51.364;12.384;2023-02-01T13:13:19;7.65;;;2.28;;
14933;SDS011;7560;51.364;12.384;2023-02-01T13:18:32;7.18;;;2.90;;
14933;SDS011;7560;51.364;12.384;2023-02-01T13:23:37;5.32;;;1.65;;
14933;SDS011;7560;51.364;12.384;2023-02-01T13:28:47;11.40;;;2.53;;
14933;SDS011;7560;51.364;12.384;2023-02-01T13:39:45;7.80;;;2.28;;
14933;SDS011;7560;51.364;12.384;2023-02-01T13:50:11;6.00;;;2.30;;
14933;SDS011;7560;51.364;12.384;2023-02-01T14:00:35;6.88;;;2.15;;
14933;SDS011;7560;51.364;12.384;2023-02-01T14:10:54;4.38;;;2.30;;
14933;SDS011;7560;51.364;12.384;2023-02-01T14:21:13;8.05;;;3.00;;
14933;SDS011;7560;51.364;12.384;2023-02-01T14:26:25;14.07;;;3.10;;
14933;SDS011;7560;51.364;12.384;2023-02-01T14:31:35;5.38;;;2.50;;
14933;SDS011;7560;51.364;12.384;2023-02-01T14:47:44;7.18;;;2.60;;
14933;SDS011;7560;51.364;12.384;2023-02-01T14:58:16;5.68;;;2.60;;
14933;SDS011;7560;51.364;12.384;2023-02-01T15:08:56;11.02;;;2.92;;
14933;SDS011;7560;51.364;12.384;2023-02-01T15:14:19;6.85;;;3.15;;
14933;SDS011;7560;51.364;12.384;2023-02-01T15:19:22;8.95;;;3.08;;
14933;SDS011;7560;51.364;12.384;2023-02-01T15:24:29;6.50;;;2.80;;
14933;SDS011;7560;51.364;12.384;2023-02-01T15:29:32;6.43;;;2.92;;
14933;SDS011;7560;51.364;12.384;2023-02-01T15:34:48;6.90;;;3.00;;
14933;SDS011;7560;51.364;12.384;2023-02-01T15:45:21;5.28;;;2.85;;
14933;SDS011;7560;51.364;12.384;2023-02-01T15:50:29;8.25;;;3.17;;
14933;SDS011;7560;51.364;12.384;2023-02-01T15:55:38;5.80;;;2.70;;
14933;SDS011;7560;51.364;12.384;2023-02-01T16:00:50;6.40;;;2.90;;
14933;SDS011;7560;51.364;12.384;2023-02-01T16:05:59;4.13;;;1.20;;
14933;SDS011;7560;51.364;12.384;2023-02-01T16:16:37;0.70;;;0.70;;
14933;SDS011;7560;51.364;12.384;2023-02-01T16:21:39;1.80;;;1.08;;
14933;SDS011;7560;51.364;12.384;2023-02-01T16:26:41;1.02;;;0.68;;
14933;SDS011;7560;51.364;12.384;2023-02-01T16:31:44;1.45;;;0.50;;
14933;SDS011;7560;51.364;12.384;2023-02-01T16:36:49;0.77;;;0.60;;
14933;SDS011;7560;51.364;12.384;2023-02-01T16:41:52;0.82;;;0.70;;
14933;SDS011;7560;51.364;12.384;2023-02-01T16:46:54;0.50;;;0.50;;
14933;SDS011;7560;51.364;12.384;2023-02-01T16:51:57;2.47;;;0.77;;
14933;SDS011;7560;51.364;12.384;2023-02-01T16:56:59;1.45;;;0.90;;
14933;SDS011;7560;51.364;12.384;2023-02-01T17:02:01;3.35;;;1.05;;
14933;SDS011;7560;51.364;12.384;2023-02-01T17:07:03;1.23;;;0.90;;
14933;SDS011;7560;51.364;12.384;2023-02-01T17:12:29;2.75;;;0.90;;
14933;SDS011;7560;51.364;12.384;2023-02-01T17:17:33;3.58;;;0.85;;
14933;SDS011;7560;51.364;12.384;2023-02-01T17:22:39;4.22;;;0.90;;
14933;SDS011;7560;51.364;12.384;2023-02-01T17:27:41;1.48;;;0.90;;
14933;SDS011;7560;51.364;12.384;2023-02-01T17:32:43;0.95;;;0.85;;
14933;SDS011;7560;51.364;12.384;2023-02-01T17:37:46;2.10;;;1.10;;
14933;SDS011;7560;51.364;12.384;2023-02-01T17:42:49;2.40;;;1.00;;
14933;SDS011;7560;51.364;12.384;2023-02-01T17:47:52;1.98;;;0.85;;
14933;SDS011;7560;51.364;12.384;2023-02-01T17:52:54;2.53;;;1.20;;
14933;SDS011;7560;51.364;12.384;2023-02-01T17:57:56;1.55;;;0.88;;
14933;SDS011;7560;51.364;12.384;2023-02-01T18:02:57;1.23;;;1.13;;
14933;SDS011;7560;51.364;12.384;2023-02-01T18:08:00;1.70;;;1.23;;
14933;SDS011;7560;51.364;12.384;2023-02-01T18:13:03;3.28;;;1.30;;
14933;SDS011;7560;51.364;12.384;2023-02-01T18:18:05;1.63;;;1.42;;
14933;SDS011;7560;51.364;12.384;2023-02-01T18:23:11;5.10;;;1.50;;
14933;SDS011;7560;51.364;12.384;2023-02-01T18:28:16;1.77;;;1.58;;
14933;SDS011;7560;51.364;12.384;2023-02-01T18:33:19;3.95;;;2.03;;
14933;SDS011;7560;51.364;12.384;2023-02-01T18:38:21;5.43;;;1.83;;
14933;SDS011;7560;51.364;12.384;2023-02-01T18:43:23;3.47;;;2.00;;
14933;SDS011;7560;51.364;12.384;2023-02-01T18:48:26;3.80;;;1.90;;
14933;SDS011;7560;51.364;12.384;2023-02-01T18:53:28;5.00;;;2.47;;
14933;SDS011;7560;51.364;12.384;2023-02-01T18:58:30;4.95;;;2.15;;
14933;SDS011;7560;51.364;12.384;2023-02-01T19:03:32;4.40;;;1.90;;
14933;SDS011;7560;51.364;12.384;2023-02-01T19:08:43;6.55;;;2.10;;
14933;SDS011;7560;51.364;12.384;2023-02-01T19:13:48;2.63;;;1.70;;
14933;SDS011;7560;51.364;12.384;2023-02-01T19:18:51;4.57;;;2.13;;
14933;SDS011;7560;51.364;12.384;2023-02-01T19:23:53;4.50;;;1.85;;
14933;SDS011;7560;51.364;12.384;2023-02-01T19:28:56;7.05;;;1.90;;
14933;SDS011;7560;51.364;12.384;2023-02-01T19:33:58;3.50;;;1.80;;
14933;SDS011;7560;51.364;12.384;2023-02-01T19:39:00;3.67;;;1.90;;
14933;SDS011;7560;51.364;12.384;2023-02-01T19:44:02;5.75;;;2.00;;
14933;SDS011;7560;51.364;12.384;2023-02-01T19:49:05;5.95;;;2.10;;
14933;SDS011;7560;51.364;12.384;2023-02-01T19:54:12;6.78;;;2.40;;
14933;SDS011;7560;51.364;12.384;2023-02-01T19:59:14;5.95;;;2.03;;
14933;SDS011;7560;51.364;12.384;2023-02-01T20:04:16;8.15;;;2.30;;
14933;SDS011;7560;51.364;12.384;2023-02-01T20:09:21;2.95;;;1.75;;
14933;SDS011;7560;51.364;12.384;2023-02-01T20:14:25;2.55;;;1.50;;
14933;SDS011;7560;51.364;12.384;2023-02-01T20:19:28;8.20;;;2.40;;
14933;SDS011;7560;51.364;12.384;2023-02-01T20:24:31;4.38;;;2.00;;
14933;SDS011;7560;51.364;12.384;2023-02-01T20:29:33;5.90;;;2.40;;
14933;SDS011;7560;51.364;12.384;2023-02-01T20:34:35;5.00;;;2.42;;
14933;SDS011;7560;51.364;12.384;2023-02-01T20:39:37;5.20;;;2.28;;
14933;SDS011;7560;51.364;12.384;2023-02-01T20:44:39;5.97;;;2.15;;
14933;SDS011;7560;51.364;12.384;2023-02-01T20:49:41;8.52;;;2.15;;
14933;SDS011;7560;51.364;12.384;2023-02-01T20:54:42;4.40;;;1.75;;
14933;SDS011;7560;51.364;12.384;2023-02-01T20:59:44;5.03;;;2.00;;
14933;SDS011;7560;51.364;12.384;2023-02-01T21:04:49;3.13;;;1.80;;
14933;SDS011;7560;51.364;12.384;2023-02-01T21:09:50;5.30;;;2.35;;
14933;SDS011;7560;51.364;12.384;2023-02-01T21:14:52;3.92;;;2.30;;
14933;SDS011;7560;51.364;12.384;2023-02-01T21:19:55;7.88;;;1.90;;
14933;SDS011;7560;51.364;12.384;2023-02-01T21:24:57;6.88;;;2.20;;
14933;SDS011;7560;51.364;12.384;2023-02-01T21:30:02;6.28;;;2.60;;
14933;SDS011;7560;51.364;12.384;2023-02-01T21:35:07;4.90;;;2.22;;
14933;SDS011;7560;51.364;12.384;2023-02-01T21:40:09;4.68;;;1.80;;
14933;SDS011;7560;51.364;12.384;2023-02-01T21:45:12;3.53;;;1.90;;
14933;SDS011;7560;51.364;12.384;2023-02-01T21:50:17;5.55;;;1.67;;
14933;SDS011;7560;51.364;12.384;2023-02-01T21:55:20;7.28;;;1.85;;
14933;SDS011;7560;51.364;12.384;2023-02-01T22:00:22;3.00;;;1.70;;
14933;SDS011;7560;51.364;12.384;2023-02-01T22:05:24;4.32;;;1.70;;
14933;SDS011;7560;51.364;12.384;2023-02-01T22:10:27;4.70;;;1.42;;
14933;SDS011;7560;51.364;12.384;2023-02-01T22:15:28;7.00;;;1.52;;
14933;SDS011;7560;51.364;12.384;2023-02-01T22:20:31;3.55;;;1.50;;
14933;SDS011;7560;51.364;12.384;2023-02-01T22:25:33;5.28;;;2.00;;
14933;SDS011;7560;51.364;12.384;2023-02-01T22:30:35;4.38;;;1.65;;
14933;SDS011;7560;51.364;12.384;2023-02-01T22:35:37;3.38;;;1.77;;
14933;SDS011;7560;51.364;12.384;2023-02-01T22:40:39;5.38;;;2.38;;
14933;SDS011;7560;51.364;12.384;2023-02-01T22:45:41;3.22;;;1.70;;
14933;SDS011;7560;51.364;12.384;2023-02-01T22:50:43;5.53;;;1.90;;
14933;SDS011;7560;51.364;12.384;2023-02-01T22:55:45;6.40;;;2.47;;
14933;SDS011;7560;51.364;12.384;2023-02-01T23:00:47;5.40;;;2.45;;
14933;SDS011;7560;51.364;12.384;2023-02-01T23:05:49;7.30;;;2.72;;
14933;SDS011;7560;51.364;12.384;2023-02-01T23:10:56;6.47;;;2.85;;
14933;SDS011;7560;51.364;12.384;2023-02-01T23:16:11;8.02;;;2.42;;
14933;SDS011;7560;51.364;12.384;2023-02-01T23:21:15;5.63;;;2.40;;
14933;SDS011;7560;51.364;12.384;2023-02-01T23:26:18;6.18;;;2.20;;
14933;SDS011;7560;51.364;12.384;2023-02-01T23:31:25;8.05;;;2.55;;
14933;SDS011;7560;51.364;12.384;2023-02-01T23:36:30;7.80;;;2.00;;
14933;SDS011;7560;51.364;12.384;2023-02-01T23:41:34;7.47;;;2.38;;
14933;SDS011;7560;51.364;12.384;2023-02-01T23:46:37;6.97;;;1.85;;
14933;SDS011;7560;51.364;12.384;2023-02-01T23:51:41;7.82;;;3.00;;
14933;SDS011;7560;51.364;12.384;2023-02-01T23:56:44;6.20;;;1.77;;
